createdAt,value
2019-01-16T00:00:14.412Z,86.53
2019-01-16T00:03:01.762Z,86.19
2019-01-16T00:05:50.394Z,86.39
2019-01-16T00:08:25.401Z,86.45
2019-01-16T00:11:00.603Z,86.23
2019-01-16T00:13:32.927Z,86.24
2019-01-16T00:16:17.184Z,86.25
2019-01-16T00:18:55.181Z,86.39
2019-01-16T00:21:27.449Z,86.05
2019-01-16T00:23:59.710Z,86.05
2019-01-16T00:26:31.994Z,85.87
2019-01-16T00:29:12.638Z,85.89
2019-01-16T00:31:50.814Z,85.68
2019-01-16T00:34:23.030Z,85.66
2019-01-16T00:37:13.141Z,85.55
2019-01-16T00:40:01.785Z,86.02
2019-01-16T00:42:39.824Z,85.67
2019-01-16T00:45:30.169Z,85.53
2019-01-16T00:48:02.350Z,85.68
2019-01-16T00:50:34.615Z,85.22
2019-01-16T00:53:12.715Z,85.37
2019-01-16T00:55:47.940Z,85.04
2019-01-16T00:58:25.888Z,85.37
2019-01-16T01:00:58.313Z,85.55
2019-01-16T01:03:46.987Z,85.41
2019-01-16T01:06:34.441Z,85.55
2019-01-16T01:09:08.647Z,85.91
2019-01-16T01:11:43.600Z,85.56
2019-01-16T01:14:18.532Z,85.75
2019-01-16T01:16:52.324Z,85.87
2019-01-16T01:19:24.568Z,85.61
2019-01-16T01:22:13.464Z,85.62
2019-01-16T01:24:51.587Z,85.76
2019-01-16T01:27:23.804Z,85.89
2019-01-16T01:29:58.861Z,85.91
2019-01-16T01:32:42.742Z,85.88
2019-01-16T01:35:14.671Z,85.75
2019-01-16T01:37:46.961Z,85.88
2019-01-16T01:40:25.154Z,85.61
2019-01-16T01:43:03.353Z,85.73
2019-01-16T01:45:35.703Z,85.62
2019-01-16T01:48:13.325Z,85.50
2019-01-16T01:51:01.751Z,85.24
2019-01-16T01:53:33.636Z,85.42
2019-01-16T01:56:21.982Z,85.37
2019-01-16T01:59:00.384Z,85.33
2019-01-16T02:01:32.694Z,85.30
2019-01-16T02:04:21.524Z,85.37
2019-01-16T02:06:53.792Z,85.09
2019-01-16T02:09:32.100Z,85.20
2019-01-16T02:12:13.182Z,85.05
2019-01-16T02:14:45.450Z,85.53
2019-01-16T02:17:17.713Z,85.17
2019-01-16T02:19:52.460Z,85.44
2019-01-16T02:22:25.116Z,85.40
2019-01-16T02:25:06.307Z,85.25
2019-01-16T02:27:50.345Z,85.25
2019-01-16T02:30:34.699Z,85.34
2019-01-16T02:33:21.919Z,85.40
2019-01-16T02:36:06.164Z,85.54
2019-01-16T02:38:38.335Z,85.58
2019-01-16T02:41:16.341Z,85.67
2019-01-16T02:44:04.645Z,85.63
2019-01-16T02:46:37.015Z,85.89
2019-01-16T02:49:09.215Z,85.93
2019-01-16T02:51:54.683Z,86.02
2019-01-16T02:54:34.042Z,86.11
2019-01-16T02:57:06.210Z,86.01
2019-01-16T02:59:50.466Z,86.01
2019-01-16T03:02:22.337Z,85.66
2019-01-16T03:04:54.594Z,86.02
2019-01-16T03:07:41.822Z,85.80
2019-01-16T03:10:25.974Z,85.75
2019-01-16T03:12:58.239Z,86.48
2019-01-16T03:15:48.723Z,86.53
2019-01-16T03:18:23.764Z,86.75
2019-01-16T03:21:14.471Z,87.06
2019-01-16T03:23:46.747Z,87.27
2019-01-16T03:26:19.005Z,87.44
2019-01-16T03:28:51.277Z,87.82
2019-01-16T03:31:25.860Z,87.77
2019-01-16T03:34:14.366Z,87.51
2019-01-16T03:37:03.016Z,87.36
2019-01-16T03:39:47.586Z,87.22
2019-01-16T03:42:22.519Z,87.30
2019-01-16T03:44:57.534Z,87.36
2019-01-16T03:47:29.703Z,87.72
2019-01-16T03:50:19.702Z,87.17
2019-01-16T03:52:51.972Z,87.43
2019-01-16T03:55:32.943Z,87.23
2019-01-16T03:58:17.085Z,87.46
2019-01-16T04:01:07.388Z,87.01
2019-01-16T04:03:42.630Z,87.17
2019-01-16T04:06:32.382Z,87.17
2019-01-16T04:09:04.582Z,86.78
2019-01-16T04:11:36.605Z,87.03
2019-01-16T04:14:14.418Z,86.96
2019-01-16T04:17:05.239Z,86.48
2019-01-16T04:19:39.838Z,86.72
2019-01-16T04:22:28.420Z,86.39
2019-01-16T04:25:06.505Z,86.19
2019-01-16T04:27:41.152Z,86.20
2019-01-16T04:30:29.810Z,85.79
2019-01-16T04:33:18.676Z,86.02
2019-01-16T04:35:53.602Z,86.09
2019-01-16T04:38:25.860Z,85.80
2019-01-16T04:41:10.025Z,85.71
2019-01-16T04:43:44.944Z,85.68
2019-01-16T04:46:17.215Z,85.49
2019-01-16T04:48:49.598Z,85.31
2019-01-16T04:51:21.982Z,85.09
2019-01-16T04:54:09.007Z,85.03
2019-01-16T04:56:57.029Z,84.88
2019-01-16T04:59:29.371Z,84.73
2019-01-16T05:02:10.577Z,84.65
2019-01-16T05:04:45.288Z,84.65
2019-01-16T05:07:17.569Z,84.62
2019-01-16T05:09:55.546Z,84.78
2019-01-16T05:12:30.098Z,84.08
2019-01-16T05:15:05.647Z,84.02
2019-01-16T05:17:54.307Z,83.97
2019-01-16T05:20:26.896Z,83.47
2019-01-16T05:22:59.137Z,83.15
2019-01-16T05:25:49.423Z,82.96
2019-01-16T05:28:30.356Z,82.87
2019-01-16T05:31:02.925Z,83.18
2019-01-16T05:33:38.022Z,82.55
2019-01-16T05:36:12.763Z,82.26
2019-01-16T05:38:44.676Z,82.34
2019-01-16T05:41:26.087Z,82.03
2019-01-16T05:44:12.086Z,81.83
2019-01-16T05:46:57.449Z,81.33
2019-01-16T05:49:29.356Z,81.18
2019-01-16T05:52:17.661Z,81.30
2019-01-16T05:54:52.822Z,80.50
2019-01-16T05:57:40.435Z,80.33
2019-01-16T06:00:32.192Z,80.05
2019-01-16T06:03:07.638Z,80.34
2019-01-16T06:05:55.950Z,80.15
2019-01-16T06:08:30.994Z,79.84
2019-01-16T06:11:05.927Z,80.01
2019-01-16T06:13:56.178Z,79.99
2019-01-16T06:16:28.442Z,79.97
2019-01-16T06:19:17.925Z,79.93
2019-01-16T06:21:50.128Z,79.88
2019-01-16T06:24:34.386Z,80.14
2019-01-16T06:27:21.601Z,80.17
2019-01-16T06:30:05.734Z,80.31
2019-01-16T06:32:40.905Z,80.30
2019-01-16T06:35:29.665Z,80.55
2019-01-16T06:38:07.463Z,80.89
2019-01-16T06:40:54.655Z,81.21
2019-01-16T06:43:35.449Z,81.64
2019-01-16T06:46:07.660Z,81.02
2019-01-16T06:48:59.609Z,81.43
2019-01-16T06:51:42.627Z,81.42
2019-01-16T06:54:27.037Z,81.37
2019-01-16T06:57:01.873Z,81.24
2019-01-16T06:59:49.302Z,81.23
2019-01-16T07:02:38.039Z,80.93
2019-01-16T07:05:10.410Z,80.90
2019-01-16T07:07:45.648Z,81.12
2019-01-16T07:10:17.919Z,80.94
2019-01-16T07:12:49.872Z,81.21
2019-01-16T07:15:36.793Z,81.08
2019-01-16T07:18:18.271Z,80.65
2019-01-16T07:20:56.168Z,80.79
2019-01-16T07:23:34.068Z,80.88
2019-01-16T07:26:22.414Z,80.79
2019-01-16T07:28:57.574Z,80.88
2019-01-16T07:31:32.836Z,80.69
2019-01-16T07:34:09.435Z,80.88
2019-01-16T07:36:45.190Z,80.84
2019-01-16T07:39:19.845Z,82.45
2019-01-16T07:41:57.962Z,80.44
2019-01-16T07:44:35.984Z,74.61
2019-01-16T07:47:10.081Z,70.82
2019-01-16T07:49:57.326Z,70.54
2019-01-16T07:52:35.506Z,69.29
2019-01-16T07:55:07.781Z,70.09
2019-01-16T07:57:55.229Z,69.97
2019-01-16T08:00:30.544Z,71.24
2019-01-16T08:03:02.461Z,71.96
2019-01-16T08:05:51.628Z,73.84
2019-01-16T08:08:23.945Z,75.02
2019-01-16T08:10:59.205Z,76.26
2019-01-16T08:13:48.140Z,76.77
2019-01-16T08:16:26.920Z,78.05
2019-01-16T08:19:18.690Z,78.19
2019-01-16T08:21:56.854Z,78.68
2019-01-16T08:24:29.101Z,78.96
2019-01-16T08:27:10.166Z,79.11
2019-01-16T08:29:45.235Z,79.11
2019-01-16T08:32:21.056Z,78.75
2019-01-16T08:35:08.643Z,79.18
2019-01-16T08:37:43.821Z,78.43
2019-01-16T08:40:37.856Z,78.77
2019-01-16T08:43:14.782Z,78.66
2019-01-16T08:45:47.061Z,78.85
2019-01-16T08:48:19.207Z,78.76
2019-01-16T08:50:53.955Z,78.82
2019-01-16T08:53:32.282Z,78.89
2019-01-16T08:56:04.658Z,79.01
2019-01-16T08:58:49.910Z,79.17
2019-01-16T09:01:34.328Z,79.34
2019-01-16T09:04:06.613Z,79.26
2019-01-16T09:06:54.058Z,79.06
2019-01-16T09:09:26.407Z,79.31
2019-01-16T09:12:01.445Z,79.54
2019-01-16T09:14:33.620Z,79.68
2019-01-16T09:17:17.677Z,79.91
2019-01-16T09:19:50.036Z,79.93
2019-01-16T09:22:40.773Z,80.92
2019-01-16T09:25:22.011Z,80.16
2019-01-16T09:28:02.800Z,80.11
2019-01-16T09:30:40.791Z,80.21
2019-01-16T09:33:15.733Z,79.84
2019-01-16T09:35:48.154Z,79.85
2019-01-16T09:38:22.684Z,79.65
2019-01-16T09:40:57.308Z,79.84
2019-01-16T09:43:29.751Z,80.04
2019-01-16T09:46:18.473Z,80.85
2019-01-16T09:48:53.450Z,80.00
2019-01-16T09:51:41.964Z,79.97
2019-01-16T09:54:32.254Z,79.83
2019-01-16T09:57:13.339Z,80.04
2019-01-16T09:59:54.503Z,79.83
2019-01-16T10:02:39.263Z,79.73
2019-01-16T10:05:28.031Z,79.98
2019-01-16T10:07:59.911Z,79.79
2019-01-16T10:10:35.583Z,79.81
2019-01-16T10:13:10.508Z,79.13
2019-01-16T10:15:45.815Z,79.02
2019-01-16T10:18:26.846Z,78.93
2019-01-16T10:20:59.022Z,79.08
2019-01-16T10:23:41.106Z,78.60
2019-01-16T10:26:27.424Z,78.39
2019-01-16T10:29:02.448Z,78.30
2019-01-16T10:31:37.370Z,78.27
2019-01-16T10:34:09.735Z,77.98
2019-01-16T10:36:44.938Z,77.61
2019-01-16T10:39:23.143Z,77.04
2019-01-16T10:42:01.474Z,77.14
2019-01-16T10:44:51.848Z,77.24
2019-01-16T10:47:40.520Z,77.36
2019-01-16T10:50:29.526Z,77.50
2019-01-16T10:53:04.596Z,77.18
2019-01-16T10:55:49.163Z,77.35
2019-01-16T10:58:36.306Z,77.50
2019-01-16T11:01:14.105Z,77.33
2019-01-16T11:03:51.633Z,77.38
2019-01-16T11:06:29.911Z,77.03
2019-01-16T11:09:08.395Z,77.14
2019-01-16T11:11:40.747Z,77.36
2019-01-16T11:14:25.267Z,77.19
2019-01-16T11:17:13.980Z,77.13
2019-01-16T11:19:52.013Z,76.81
2019-01-16T11:22:25.145Z,76.87
2019-01-16T11:25:13.013Z,76.61
2019-01-16T11:27:45.279Z,76.47
2019-01-16T11:30:26.691Z,76.49
2019-01-16T11:33:01.310Z,76.34
2019-01-16T11:35:42.400Z,76.59
2019-01-16T11:38:17.644Z,76.58
2019-01-16T11:41:05.700Z,76.38
2019-01-16T11:43:37.941Z,76.68
2019-01-16T11:46:19.129Z,75.96
2019-01-16T11:48:57.494Z,75.98
2019-01-16T11:51:45.950Z,75.96
2019-01-16T11:54:23.988Z,75.92
2019-01-16T11:56:59.140Z,75.52
2019-01-16T11:59:38.071Z,75.61
2019-01-16T12:02:10.037Z,75.67
2019-01-16T12:04:45.116Z,75.47
2019-01-16T12:07:23.407Z,75.68
2019-01-16T12:10:01.699Z,75.67
2019-01-16T12:12:39.571Z,75.74
2019-01-16T12:15:27.400Z,75.65
2019-01-16T12:18:08.730Z,75.80
2019-01-16T12:20:41.053Z,75.76
2019-01-16T12:23:13.322Z,75.63
2019-01-16T12:25:51.157Z,75.64
2019-01-16T12:28:23.496Z,75.44
2019-01-16T12:31:13.608Z,75.14
2019-01-16T12:33:54.865Z,75.27
2019-01-16T12:36:42.405Z,75.23
2019-01-16T12:39:31.050Z,75.45
2019-01-16T12:42:12.437Z,75.10
2019-01-16T12:44:44.603Z,75.23
2019-01-16T12:47:29.062Z,75.17
2019-01-16T12:50:13.480Z,75.09
2019-01-16T12:52:45.826Z,74.92
2019-01-16T12:55:19.916Z,75.07
2019-01-16T12:57:52.267Z,74.97
2019-01-16T13:00:43.903Z,74.90
2019-01-16T13:03:25.487Z,75.11
2019-01-16T13:06:09.847Z,74.92
2019-01-16T13:08:42.122Z,74.52
2019-01-16T13:11:30.973Z,74.24
2019-01-16T13:14:19.664Z,74.38
2019-01-16T13:16:51.933Z,74.25
2019-01-16T13:19:26.728Z,74.38
2019-01-16T13:21:58.670Z,74.50
2019-01-16T13:24:33.699Z,74.62
2019-01-16T13:27:14.703Z,74.60
2019-01-16T13:29:52.122Z,74.50
2019-01-16T13:32:39.302Z,74.72
2019-01-16T13:35:23.198Z,74.82
2019-01-16T13:38:07.324Z,74.91
2019-01-16T13:40:42.469Z,74.32
2019-01-16T13:43:23.653Z,74.20
2019-01-16T13:46:15.162Z,74.24
2019-01-16T13:48:52.944Z,74.71
2019-01-16T13:51:46.115Z,74.50
2019-01-16T13:54:23.063Z,74.27
2019-01-16T13:57:04.164Z,74.49
2019-01-16T13:59:55.557Z,74.85
2019-01-16T14:02:36.962Z,74.94
2019-01-16T14:05:18.230Z,74.94
2019-01-16T14:07:53.175Z,74.69
2019-01-16T14:10:25.448Z,75.54
2019-01-16T14:13:14.101Z,74.84
2019-01-16T14:15:58.138Z,74.66
2019-01-16T14:18:33.219Z,74.86
2019-01-16T14:21:21.627Z,74.80
2019-01-16T14:24:09.070Z,74.99
2019-01-16T14:26:50.826Z,75.22
2019-01-16T14:29:23.332Z,75.87
2019-01-16T14:32:09.909Z,75.69
2019-01-16T14:34:44.425Z,75.75
2019-01-16T14:37:16.714Z,75.65
2019-01-16T14:40:05.170Z,75.57
2019-01-16T14:42:53.221Z,74.95
2019-01-16T14:45:29.683Z,75.33
2019-01-16T14:48:01.881Z,74.94
2019-01-16T14:50:50.811Z,74.75
2019-01-16T14:53:26.030Z,74.70
2019-01-16T14:56:00.778Z,74.70
2019-01-16T14:58:50.285Z,74.70
2019-01-16T15:01:22.820Z,74.85
2019-01-16T15:04:00.671Z,74.75
2019-01-16T15:06:38.709Z,74.95
2019-01-16T15:09:15.836Z,74.89
2019-01-16T15:11:54.081Z,74.64
2019-01-16T15:14:31.853Z,74.77
2019-01-16T15:17:12.900Z,75.12
2019-01-16T15:20:00.424Z,74.89
2019-01-16T15:22:41.826Z,75.29
2019-01-16T15:25:30.461Z,74.84
2019-01-16T15:28:02.832Z,74.83
2019-01-16T15:30:40.918Z,75.23
2019-01-16T15:33:18.941Z,75.13
2019-01-16T15:35:51.233Z,75.10
2019-01-16T15:38:40.156Z,75.31
2019-01-16T15:41:22.063Z,74.70
2019-01-16T15:43:54.339Z,74.88
2019-01-16T15:46:26.614Z,74.86
2019-01-16T15:49:15.075Z,74.77
2019-01-16T15:51:55.923Z,75.09
2019-01-16T15:54:28.203Z,74.95
2019-01-16T15:57:19.719Z,74.74
2019-01-16T16:00:00.847Z,75.02
2019-01-16T16:02:46.738Z,74.88
2019-01-16T16:05:25.101Z,75.47
2019-01-16T16:07:57.358Z,74.58
2019-01-16T16:10:29.670Z,75.19
2019-01-16T16:13:04.788Z,75.11
2019-01-16T16:15:37.037Z,74.47
2019-01-16T16:18:11.891Z,75.30
2019-01-16T16:20:46.507Z,76.00
2019-01-16T16:23:18.782Z,75.21
2019-01-16T16:26:07.742Z,75.09
2019-01-16T16:28:51.871Z,74.66
2019-01-16T16:31:42.667Z,74.99
2019-01-16T16:34:14.872Z,74.64
2019-01-16T16:36:46.932Z,74.93
2019-01-16T16:39:21.790Z,74.65
2019-01-16T16:42:00.283Z,74.45
2019-01-16T16:44:38.345Z,74.82
2019-01-16T16:47:13.628Z,74.21
2019-01-16T16:50:03.636Z,73.72
2019-01-16T16:52:36.288Z,74.52
2019-01-16T16:55:08.599Z,74.29
2019-01-16T16:57:51.065Z,74.20
2019-01-16T17:00:40.641Z,74.24
2019-01-16T17:03:25.332Z,74.16
2019-01-16T17:06:02.062Z,74.24
2019-01-16T17:08:39.682Z,73.43
2019-01-16T17:11:14.924Z,73.31
2019-01-16T17:13:50.199Z,74.08
2019-01-16T17:16:38.782Z,73.75
2019-01-16T17:19:37.565Z,73.46
2019-01-16T17:22:22.376Z,73.29
2019-01-16T17:25:00.863Z,73.22
2019-01-16T17:27:35.920Z,73.52
2019-01-16T17:30:14.337Z,73.09
2019-01-16T17:32:52.047Z,73.18
2019-01-16T17:35:30.128Z,73.18
2019-01-16T17:38:08.343Z,72.82
2019-01-16T17:40:40.719Z,72.89
2019-01-16T17:43:15.929Z,72.97
2019-01-16T17:45:48.863Z,72.71
2019-01-16T17:48:20.831Z,72.99
2019-01-16T17:51:09.355Z,72.41
2019-01-16T17:53:58.151Z,72.68
2019-01-16T17:56:40.033Z,72.20
2019-01-16T17:59:28.453Z,72.03
2019-01-16T18:02:15.685Z,73.18
2019-01-16T18:04:47.911Z,72.15
2019-01-16T18:07:20.231Z,71.63
2019-01-16T18:09:55.459Z,71.71
2019-01-16T18:12:36.677Z,71.79
2019-01-16T18:15:25.403Z,71.77
2019-01-16T18:17:58.334Z,71.80
2019-01-16T18:20:45.929Z,71.34
2019-01-16T18:23:18.289Z,71.50
2019-01-16T18:25:53.310Z,71.33
2019-01-16T18:28:25.728Z,71.35
2019-01-16T18:31:14.431Z,70.70
2019-01-16T18:34:02.816Z,71.01
2019-01-16T18:36:51.758Z,70.50
2019-01-16T18:39:32.935Z,70.89
2019-01-16T18:42:20.177Z,70.70
2019-01-16T18:44:55.575Z,70.40
2019-01-16T18:47:36.948Z,70.56
2019-01-16T18:50:28.316Z,70.92
2019-01-16T18:53:03.646Z,71.01
2019-01-16T18:55:54.045Z,70.81
2019-01-16T18:58:32.178Z,70.26
2019-01-16T19:01:07.494Z,70.22
2019-01-16T19:03:45.836Z,70.15
2019-01-16T19:06:34.381Z,70.10
2019-01-16T19:09:24.568Z,69.83
2019-01-16T19:12:13.413Z,69.93
2019-01-16T19:14:57.954Z,69.36
2019-01-16T19:17:30.171Z,69.69
2019-01-16T19:20:18.682Z,69.60
2019-01-16T19:22:58.161Z,69.11
2019-01-16T19:25:48.644Z,69.66
2019-01-16T19:28:30.524Z,69.53
2019-01-16T19:31:05.769Z,69.37
2019-01-16T19:33:44.155Z,69.54
2019-01-16T19:36:22.087Z,69.74
2019-01-16T19:38:57.041Z,69.74
2019-01-16T19:41:37.789Z,70.51
2019-01-16T19:44:19.203Z,69.15
2019-01-16T19:46:51.579Z,69.18
2019-01-16T19:49:26.811Z,69.26
2019-01-16T19:52:02.226Z,69.40
2019-01-16T19:54:46.663Z,69.80
2019-01-16T19:57:22.021Z,69.31
2019-01-16T19:59:57.181Z,69.14
2019-01-16T20:02:38.326Z,69.21
2019-01-16T20:05:26.584Z,69.64
2019-01-16T20:07:58.553Z,69.00
2019-01-16T20:10:40.024Z,69.84
2019-01-16T20:13:14.958Z,68.73
2019-01-16T20:15:47.240Z,68.94
2019-01-16T20:18:22.318Z,68.86
2019-01-16T20:21:00.315Z,68.97
2019-01-16T20:23:49.238Z,69.05
2019-01-16T20:26:32.288Z,68.59
2019-01-16T20:29:22.789Z,68.82
2019-01-16T20:31:58.100Z,68.30
2019-01-16T20:34:37.071Z,68.53
2019-01-16T20:37:12.060Z,68.76
2019-01-16T20:39:44.615Z,68.86
2019-01-16T20:42:20.332Z,68.90
2019-01-16T20:44:55.562Z,69.91
2019-01-16T20:47:30.570Z,69.09
2019-01-16T20:50:12.463Z,69.34
2019-01-16T20:52:53.034Z,68.73
2019-01-16T20:55:45.855Z,69.21
2019-01-16T20:58:56.707Z,68.83
2019-01-16T21:01:21.200Z,68.78
2019-01-16T21:03:56.502Z,69.32
2019-01-16T21:06:32.271Z,69.76
2019-01-16T21:09:11.871Z,68.91
2019-01-16T21:11:44.145Z,69.42
2019-01-16T21:14:22.539Z,69.13
2019-01-16T21:17:00.676Z,70.01
2019-01-16T21:19:41.937Z,70.73
2019-01-16T21:22:28.907Z,69.32
2019-01-16T21:25:16.253Z,69.40
2019-01-16T21:28:03.301Z,70.62
2019-01-16T21:30:35.302Z,70.13
2019-01-16T21:33:13.521Z,69.81
2019-01-16T21:36:00.875Z,70.00
2019-01-16T21:38:36.631Z,70.72
2019-01-16T21:41:09.530Z,70.55
2019-01-16T21:43:51.012Z,71.01
2019-01-16T21:46:23.297Z,70.41
2019-01-16T21:49:04.864Z,71.10
2019-01-16T21:51:53.867Z,70.56
2019-01-16T21:54:26.213Z,70.76
2019-01-16T21:57:35.626Z,70.45
2019-01-16T22:00:14.054Z,71.43
2019-01-16T22:02:51.853Z,71.25
2019-01-16T22:05:33.238Z,71.11
2019-01-16T22:08:05.517Z,72.33
2019-01-16T22:10:54.058Z,71.99
2019-01-16T22:13:29.419Z,71.23
2019-01-16T22:16:04.845Z,72.77
2019-01-16T22:18:39.569Z,73.12
2019-01-16T22:21:21.051Z,72.46
2019-01-16T22:23:53.432Z,72.80
2019-01-16T22:26:25.806Z,72.43
2019-01-16T22:28:58.068Z,72.74
2019-01-16T22:31:36.633Z,72.50
2019-01-16T22:34:18.141Z,72.33
2019-01-16T22:37:07.147Z,72.42
2019-01-16T22:39:48.783Z,73.15
2019-01-16T22:42:27.323Z,72.72
2019-01-16T22:45:14.874Z,72.40
2019-01-16T22:47:51.591Z,72.32
2019-01-16T22:50:27.177Z,74.01
2019-01-16T22:53:14.463Z,72.81
2019-01-16T22:55:46.509Z,73.08
2019-01-16T22:58:24.398Z,74.31
2019-01-16T23:01:09.070Z,72.63
2019-01-16T23:03:53.631Z,73.34
2019-01-16T23:06:44.113Z,74.05
2019-01-16T23:09:32.853Z,72.28
2019-01-16T23:12:14.028Z,72.76
2019-01-16T23:14:46.317Z,73.62
2019-01-16T23:17:34.783Z,74.03
2019-01-16T23:20:21.468Z,74.04
2019-01-16T23:23:05.779Z,74.37
2019-01-16T23:25:38.099Z,73.95
2019-01-16T23:28:25.311Z,74.21
2019-01-16T23:31:03.172Z,73.66
2019-01-16T23:33:35.472Z,73.57
2019-01-16T23:36:24.130Z,72.82
2019-01-16T23:38:58.961Z,73.55
2019-01-16T23:41:47.620Z,74.42
2019-01-16T23:44:32.073Z,74.88
2019-01-16T23:47:20.732Z,73.88
2019-01-16T23:49:55.475Z,73.62
2019-01-16T23:52:27.753Z,74.04
2019-01-16T23:54:59.994Z,74.21
2019-01-16T23:57:41.068Z,74.57
